Time;durP1;ratioP1;P1;durP2;ratioP2;P2;SDS_P1;SDS_P2;PMS_P1;PMS_P2;Temp;Humidity;BMP_temperature;BMP_pressure;BME280_temperature;BME280_humidity;BME280_pressure;Samples;Min_cycle;Max_cycle;Signal;HPM_P1;HPM_P2
2022/03/06 00:00:13;;;;;;;;;;;4.50;47.20;;;2.43;52.01;102159.59;8296674;28;19996;-81
2022/03/06 00:04:16;;;;;;;;;;;4.50;47.20;;;2.48;52.49;102175.09;8271731;28;20008;-81
2022/03/06 00:08:17;;;;;;;;;;;4.20;47.10;;;2.48;52.58;102178.53;8262612;28;20343;-81
2022/03/06 00:12:19;;;;;;;;;;;4.50;47.20;;;2.42;52.56;102156.16;8293553;28;20446;-81
2022/03/06 00:16:20;;;;;;;;;;;4.50;47.30;;;2.54;52.64;102167.34;8291000;28;20016;-81
2022/03/06 00:20:22;;;;;;;;;;;4.50;47.30;;;2.40;52.11;102149.28;8277882;28;20009;-80
2022/03/06 00:24:23;;;;;;;;;;;4.50;47.30;;;2.42;52.49;102150.16;8295046;28;20012;-81
2022/03/06 00:28:24;;;;;;;;;;;4.60;47.40;;;2.29;52.40;102120.91;8278227;28;20003;-81
2022/03/06 00:32:26;;;;;;;;;;;4.60;47.40;;;2.53;52.52;102160.47;8288782;28;20016;-81
2022/03/06 00:36:27;;;;;;;;;;;4.60;47.40;;;2.46;52.50;102158.75;8295821;28;20011;-80
2022/03/06 00:40:29;;;;;;;;;;;4.60;47.40;;;2.48;52.35;102149.31;8256723;28;20000;-80
2022/03/06 00:44:30;;;;;;;;;;;4.50;47.30;;;2.49;52.25;102164.78;8296024;28;20004;-81
2022/03/06 00:48:32;;;;;;;;;;;4.40;47.30;;;2.32;52.64;102120.06;8281383;28;20004;-80
2022/03/06 00:52:33;;;;;;;;;;;4.60;47.40;;;2.49;52.42;102146.75;8261603;28;19922;-80
2022/03/06 00:56:34;;;;;;;;;;;4.60;47.40;;;2.52;52.61;102154.47;8295234;28;20015;-81
2022/03/06 01:00:39;;;;;;;;;;;4.60;47.40;;;2.65;52.69;102174.25;8293191;28;20012;-81
2022/03/06 01:04:41;;;;;;;;;;;4.60;47.30;;;2.66;52.60;102173.38;8272085;28;20008;-80
2022/03/06 01:08:42;;;;;;;;;;;4.50;47.20;;;2.52;52.88;102143.31;8277486;28;20008;-81
2022/03/06 01:12:43;;;;;;;;;;;4.70;47.30;;;2.62;52.40;102169.09;8274760;28;20020;-80
2022/03/06 01:16:45;;;;;;;;;;;4.70;47.30;;;2.60;52.47;102168.25;8261517;28;20016;-80
2022/03/06 01:20:46;;;;;;;;;;;4.40;47.10;;;2.53;52.46;102151.03;8291783;28;20322;-81
2022/03/06 01:24:47;;;;;;;;;;;4.70;47.20;;;2.60;52.55;102173.41;8261336;28;20335;-80
2022/03/06 01:28:49;;;;;;;;;;;4.70;47.20;;;2.51;52.25;102152.78;8287782;28;20414;-81
2022/03/06 01:32:51;;;;;;;;;;;4.60;47.20;;;2.48;52.57;102157.91;8281978;28;20013;-80
2022/03/06 01:36:53;;;;;;;;;;;4.60;47.20;;;2.43;52.24;102145.03;8265110;28;20032;-81
2022/03/06 01:40:55;;;;;;;;;;;4.60;47.30;;;2.47;52.67;102148.44;8301083;28;20600;-80
2022/03/06 01:44:56;;;;;;;;;;;4.60;47.30;;;2.41;52.56;102140.72;8262588;28;20089;-81
2022/03/06 01:48:57;;;;;;;;;;;4.60;47.30;;;2.51;52.53;102147.63;8300007;28;20044;-80
2022/03/06 01:53:01;;;;;;;;;;;4.60;47.40;;;2.46;52.67;102136.44;8300728;28;19921;-80
2022/03/06 01:57:02;;;;;;;;;;;4.50;47.20;;;2.60;52.31;102157.06;8261016;28;20331;-80
2022/03/06 02:01:04;;;;;;;;;;;4.60;47.20;;;2.31;52.31;102105.47;8299351;28;20438;-80
2022/03/06 02:05:06;;;;;;;;;;;4.60;47.30;;;2.47;52.42;102135.56;8299196;28;20011;-80
2022/03/06 02:09:07;;;;;;;;;;;4.60;47.30;;;2.43;52.62;102108.94;8296484;28;19917;-80
2022/03/06 02:13:09;;;;;;;;;;;4.70;47.40;;;2.60;52.41;102134.72;8300412;28;20013;-80
2022/03/06 02:17:10;;;;;;;;;;;4.70;47.40;;;2.28;52.65;102085.72;8282408;28;20008;-80
2022/03/06 02:21:14;;;;;;;;;;;4.70;47.40;;;2.70;52.56;102148.50;8294802;28;19917;-80
2022/03/06 02:25:21;;;;;;;;;;;4.70;47.40;;;2.41;52.52;102095.16;8299974;28;20024;-80
2022/03/06 02:29:23;;;;;;;;;;;4.70;47.30;;;2.54;52.38;102102.88;8272575;28;20330;-80
2022/03/06 02:33:24;;;;;;;;;;;4.50;47.20;;;2.61;52.48;102112.38;8281945;28;20028;-80
2022/03/06 02:37:26;;;;;;;;;;;4.70;47.30;;;2.73;52.73;102127.84;8281901;28;20008;-80
2022/03/06 02:41:33;;;;;;;;;;;4.80;47.30;;;2.40;52.48;102077.09;8280679;28;20124;-80
2022/03/06 02:45:36;;;;;;;;;;;4.80;47.40;;;2.70;52.66;102121.81;8265831;28;20016;-80
2022/03/06 02:49:37;;;;;;;;;;;4.70;47.30;;;2.22;52.25;102039.31;8273562;28;20008;-80
2022/03/06 02:53:38;;;;;;;;;;;4.60;47.20;;;2.51;52.55;102093.47;8298903;28;20360;-80
2022/03/06 02:57:41;;;;;;;;;;;4.80;47.30;;;2.74;52.17;102128.69;8264040;28;20042;-80
2022/03/06 03:01:42;;;;;;;;;;;4.60;47.20;;;2.47;52.37;102084.00;8298503;28;20048;-80
2022/03/06 03:05:43;;;;;;;;;;;4.70;47.30;;;2.64;52.57;102114.94;8279761;28;20009;-80
2022/03/06 03:09:45;;;;;;;;;;;4.70;47.30;;;2.58;52.55;102102.91;8290117;28;20357;-80
2022/03/06 03:13:46;;;;;;;;;;;4.70;47.30;;;2.63;52.72;102105.50;8264979;28;20426;-80
2022/03/06 03:17:47;;;;;;;;;;;4.40;47.20;;;2.58;52.70;102100.31;8295421;28;20335;-81
2022/03/06 03:21:49;;;;;;;;;;;4.70;47.30;;;2.52;52.60;102082.28;8264294;28;20008;-80
2022/03/06 03:25:50;;;;;;;;;;;4.70;47.30;;;2.28;52.60;102046.19;8277421;28;20017;-80
2022/03/06 03:29:51;;;;;;;;;;;4.70;47.70;;;2.69;52.64;102120.97;8295100;28;20008;-80
2022/03/06 03:33:53;;;;;;;;;;;4.70;47.30;;;2.57;52.45;102097.75;8297559;28;19932;-80
2022/03/06 03:37:54;;;;;;;;;;;4.70;47.30;;;2.09;52.65;102016.97;8294544;28;20016;-80
2022/03/06 03:41:56;;;;;;;;;;;4.70;47.30;;;2.58;52.33;102102.91;8297216;28;20016;-80
2022/03/06 03:45:59;;;;;;;;;;;4.70;47.30;;;2.59;52.46;102096.03;8293294;28;20016;-80
2022/03/06 03:50:01;;;;;;;;;;;4.60;47.20;;;2.52;52.83;102086.59;8295795;28;20017;-80
2022/03/06 03:54:02;;;;;;;;;;;4.80;47.20;;;2.77;52.47;102123.53;8286171;28;20012;-80
2022/03/06 03:58:04;;;;;;;;;;;4.80;47.20;;;2.54;52.47;102097.72;8291825;28;20470;-80
2022/03/06 04:02:06;;;;;;;;;;;4.80;47.20;;;2.78;52.57;102135.56;8289821;28;20012;-80
2022/03/06 04:06:07;;;;;;;;;;;4.70;47.10;;;2.72;52.25;102115.78;8279492;28;20020;-80
2022/03/06 04:10:09;;;;;;;;;;;4.80;47.20;;;2.77;52.42;102132.13;8260623;28;20004;-80
2022/03/06 04:14:10;;;;;;;;;;;4.80;47.20;;;2.54;52.72;102092.56;8279293;28;20045;-80
2022/03/06 04:18:12;;;;;;;;;;;4.80;47.10;;;2.58;52.31;102097.75;8278780;28;20008;-80
2022/03/06 04:22:13;;;;;;;;;;;5.00;47.20;;;2.62;52.55;102103.78;8272474;28;20040;-80
2022/03/06 04:26:15;;;;;;;;;;;4.80;47.10;;;2.72;52.69;102110.63;8286716;28;20008;-80
2022/03/06 04:30:16;;;;;;;;;;;4.80;47.10;;;2.63;52.44;102105.50;8270963;28;19921;-81
2022/03/06 04:34:18;;;;;;;;;;;4.80;47.10;;;2.84;52.29;102141.59;8278574;28;20008;-80
2022/03/06 04:38:19;;;;;;;;;;;4.80;47.10;;;2.83;52.71;102132.13;8292423;28;20016;-80
2022/03/06 04:42:21;;;;;;;;;;;4.90;47.10;;;2.70;52.62;102116.66;8295826;28;20017;-80
2022/03/06 04:46:22;;;;;;;;;;;5.00;47.20;;;2.75;52.53;102112.34;8296299;28;20020;-80
2022/03/06 04:50:23;;;;;;;;;;;4.90;47.10;;;2.83;52.35;102139.84;8287503;28;20012;-80
2022/03/06 04:54:25;;;;;;;;;;;4.90;47.20;;;2.70;52.75;102112.38;8295476;28;20008;-80
2022/03/06 04:58:27;;;;;;;;;;;4.90;47.10;;;2.36;52.30;102049.63;8275280;28;20000;-80
2022/03/06 05:02:28;;;;;;;;;;;4.90;47.20;;;2.72;52.58;102118.38;8277801;28;20116;-80
2022/03/06 05:06:30;;;;;;;;;;;4.60;47.00;;;2.47;52.53;102081.41;8290093;28;20000;-80
2022/03/06 05:10:31;;;;;;;;;;;4.90;47.10;;;2.84;52.37;102140.75;8276821;28;20020;-80
2022/03/06 05:14:32;;;;;;;;;;;4.70;47.00;;;2.81;52.57;102136.44;8291101;28;20023;-80
2022/03/06 05:18:34;;;;;;;;;;;4.90;47.10;;;2.85;52.41;102137.28;8294527;28;20008;-80
2022/03/06 05:22:35;;;;;;;;;;;4.90;47.10;;;2.42;52.24;102076.25;8292692;28;20000;-80
2022/03/06 05:26:38;;;;;;;;;;;4.70;47.00;;;2.67;52.31;102122.66;8294838;28;20020;-80
2022/03/06 05:30:39;;;;;;;;;;;5.10;47.10;;;2.31;52.49;102064.22;8282212;28;20008;-80
2022/03/06 05:34:40;;;;;;;;;;;4.60;46.90;;;2.27;52.59;102055.66;8268373;28;19925;-80
2022/03/06 05:38:42;;;;;;;;;;;4.80;47.00;;;2.53;52.58;102099.47;8252246;28;20004;-80
2022/03/06 05:42:43;;;;;;;;;;;4.80;47.00;;;2.76;52.46;102135.59;8261258;28;20008;-79
2022/03/06 05:46:45;;;;;;;;;;;4.80;47.10;;;2.51;52.38;102098.63;8275144;28;20012;-80
2022/03/06 05:50:46;;;;;;;;;;;4.70;47.00;;;2.52;52.51;102108.06;8294504;28;20024;-80
2022/03/06 05:54:47;;;;;;;;;;;4.70;47.00;;;2.57;52.53;102110.66;8294575;28;20454;-80
2022/03/06 05:58:49;;;;;;;;;;;4.80;47.00;;;2.62;52.83;102120.09;8273892;28;20644;-80
2022/03/06 06:02:50;;;;;;;;;;;4.70;47.00;;;2.72;52.37;102130.41;8277440;28;20015;-80
2022/03/06 06:06:51;;;;;;;;;;;4.80;47.10;;;2.53;52.57;102099.47;8289555;28;20031;-80
2022/03/06 06:10:53;;;;;;;;;;;4.70;47.00;;;2.50;52.38;102096.03;8293673;28;20353;-80
2022/03/06 06:14:54;;;;;;;;;;;4.50;47.00;;;2.36;52.63;102065.09;8291270;28;20462;-80
2022/03/06 06:18:56;;;;;;;;;;;4.70;47.10;;;2.36;52.50;102065.09;8293302;28;20449;-80
2022/03/06 06:22:57;;;;;;;;;;;4.80;47.10;;;2.79;52.24;102145.03;8299763;28;20032;-80
2022/03/06 06:26:59;;;;;;;;;;;4.70;47.10;;;2.74;52.22;102150.19;8300027;28;20013;-80
2022/03/06 06:31:01;;;;;;;;;;;4.70;47.00;;;2.66;52.72;102137.28;8281447;28;20001;-80
2022/03/06 06:35:02;;;;;;;;;;;4.80;47.00;;;2.30;52.56;102076.25;8300223;28;20008;-80
2022/03/06 06:39:03;;;;;;;;;;;5.10;47.20;;;2.46;52.75;102105.50;8299806;28;20004;-80
2022/03/06 06:43:05;;;;;;;;;;;4.70;47.10;;;2.31;52.32;102077.13;8281086;28;20020;-80
2022/03/06 06:47:06;;;;;;;;;;;4.50;47.00;;;2.75;52.56;102154.47;8266233;28;20441;-80
2022/03/06 06:51:08;;;;;;;;;;;4.80;47.20;;;2.59;52.64;102120.13;8255819;28;20406;-80
2022/03/06 06:55:10;;;;;;;;;;;4.80;47.20;;;2.82;52.46;102156.22;8282371;28;20438;-80
2022/03/06 06:59:13;;;;;;;;;;;4.80;47.20;;;2.70;52.67;102130.44;8295225;28;20004;-81
2022/03/06 07:03:15;;;;;;;;;;;4.80;47.20;;;2.35;52.40;102076.25;8266082;28;20013;-81
2022/03/06 07:07:18;;;;;;;;;;;4.90;47.20;;;2.60;52.50;102119.25;8274146;28;20006;-84
2022/03/06 07:11:19;;;;;;;;;;;4.90;47.20;;;2.81;52.65;102156.22;8265053;28;20028;-84
2022/03/06 07:15:21;;;;;;;;;;;4.90;47.20;;;2.60;52.92;102120.97;8277397;28;20012;-84
2022/03/06 07:19:23;;;;;;;;;;;4.60;47.10;;;2.75;52.65;102135.56;8281088;28;20012;-83
2022/03/06 07:23:24;;;;;;;;;;;4.90;47.20;;;2.76;52.37;102132.16;8257666;28;20004;-84
2022/03/06 07:27:26;;;;;;;;;;;4.90;47.20;;;2.81;52.44;102135.59;8297598;28;20011;-84
2022/03/06 07:31:27;;;;;;;;;;;5.00;47.20;;;2.94;52.57;102157.06;8255906;28;20020;-86
2022/03/06 07:35:29;;;;;;;;;;;5.00;47.20;;;2.85;52.64;102152.78;8265030;28;20011;-84
2022/03/06 07:39:31;;;;;;;;;;;5.00;47.20;;;2.90;52.78;102156.22;8234328;28;20008;-84
2022/03/06 07:43:33;;;;;;;;;;;5.00;47.10;;;2.73;52.53;102138.16;8280549;28;19924;-82
2022/03/06 07:47:35;;;;;;;;;;;4.70;46.90;;;2.61;52.40;102104.63;8253528;28;19925;-87
2022/03/06 07:51:54;;;;;;;;;;;5.10;47.00;;;3.06;52.52;102169.97;8259436;28;19925;-87
2022/03/06 07:56:19;;;;;;;;;;;5.10;47.10;;;3.02;52.50;102160.50;8264672;28;19921;-87
2022/03/06 08:00:40;;;;;;;;;;;5.10;47.00;;;3.04;52.51;102162.22;8274442;28;19922;-86
2022/03/06 08:05:03;;;;;;;;;;;5.40;47.20;;;3.05;52.53;102163.06;8243506;28;19927;-84
2022/03/06 08:09:24;;;;;;;;;;;5.20;46.90;;;3.18;52.30;102182.00;8260574;28;19928;-88
2022/03/06 08:13:46;;;;;;;;;;;5.00;46.90;;;2.99;52.71;102155.34;8286205;28;20310;-85
2022/03/06 08:18:07;;;;;;;;;;;5.20;46.90;;;3.09;52.79;102178.56;8283100;28;20271;-84
2022/03/06 08:22:29;;;;;;;;;;;5.30;46.90;;;2.95;52.40;102149.34;8252078;28;20349;-86
2022/03/06 08:26:50;;;;;;;;;;;5.20;47.00;;;3.21;52.49;102181.97;8274562;28;19928;-83
2022/03/06 08:31:12;;;;;;;;;;;5.30;47.00;;;3.19;52.53;102188.91;8261693;28;19928;-84
2022/03/06 08:35:33;;;;;;;;;;;5.30;47.10;;;3.15;52.68;102179.41;8257745;28;19921;-85
2022/03/06 08:39:55;;;;;;;;;;;5.30;47.10;;;3.15;52.71;102177.69;8259536;28;19925;-84
2022/03/06 08:44:17;;;;;;;;;;;5.30;47.10;;;3.19;52.60;102184.59;8274001;28;19921;-85
2022/03/06 08:48:38;;;;;;;;;;;5.30;47.00;;;3.27;52.69;102205.22;8258864;28;19944;-80
2022/03/06 08:53:00;;;;;;;;;;;5.30;47.00;;;3.36;52.53;102209.50;8280736;28;19925;-79
2022/03/06 08:57:23;;;;;;;;;;;5.30;47.00;;;3.28;52.30;102196.63;8279902;28;19922;-79
2022/03/06 09:01:45;;;;;;;;;;;5.40;47.40;;;3.39;52.42;102212.94;8285013;28;19925;-87
2022/03/06 09:06:06;;;;;;;;;;;5.40;47.10;;;3.21;52.46;102167.34;8260194;28;19935;-82
2022/03/06 09:10:28;;;;;;;;;;;5.30;47.10;;;3.43;52.45;102198.28;8272342;28;19928;-82
2022/03/06 09:14:50;;;;;;;;;;;5.40;47.20;;;3.36;52.69;102174.22;8267383;28;19932;-82
2022/03/06 09:19:11;;;;;;;;;;;5.40;47.10;;;3.45;52.45;102192.28;8281568;28;19927;-81
2022/03/06 09:23:33;;;;;;;;;;;5.50;47.20;;;3.44;52.56;102184.53;8270407;28;19931;-82
2022/03/06 09:27:54;;;;;;;;;;;5.50;47.20;;;3.49;52.75;102188.84;8273902;28;19953;-82
2022/03/06 09:32:16;;;;;;;;;;;5.60;47.20;;;3.51;52.35;102197.44;8266669;28;19930;-81
2022/03/06 09:36:37;;;;;;;;;;;5.30;46.90;;;3.49;52.43;102198.31;8272645;28;19924;-82
2022/03/06 09:41:02;;;;;;;;;;;5.50;47.00;;;3.34;52.44;102168.19;8285624;28;19921;-82
2022/03/06 09:45:24;;;;;;;;;;;5.60;46.90;;;3.62;52.67;102201.69;8273565;28;19927;-82
2022/03/06 09:49:46;;;;;;;;;;;5.50;46.70;;;3.66;52.38;102204.28;8271050;28;20313;-82
2022/03/06 09:54:10;;;;;;;;;;;5.60;46.80;;;3.41;52.40;102157.00;8258225;28;19926;-82
2022/03/06 09:58:32;;;;;;;;;;;5.70;46.70;;;3.64;52.71;102189.66;8290182;28;19928;-82
2022/03/06 10:02:54;;;;;;;;;;;5.40;46.70;;;3.76;52.62;102210.28;8293241;28;19928;-82
2022/03/06 10:07:17;;;;;;;;;;;5.70;46.90;;;3.64;52.80;102187.91;8272020;28;20313;-82
2022/03/06 10:11:38;;;;;;;;;;;5.80;46.70;;;3.82;52.52;102207.69;8292102;28;19925;-82
2022/03/06 10:16:17;;;;;;;;;;;5.80;46.50;;;3.84;52.43;102211.13;8284968;28;19921;-82
2022/03/06 10:20:38;;;;;;;;;;;5.80;46.20;;;3.67;52.37;102185.34;8276579;28;19922;-82
2022/03/06 10:25:16;;;;;;;;;;;5.80;46.40;;;3.69;52.28;102175.84;8274289;28;19944;-82
2022/03/06 10:29:39;;;;;;;;;;;5.80;46.40;;;3.88;52.14;102209.38;8275775;28;19927;-82
2022/03/06 10:34:05;;;;;;;;;;;5.90;46.30;;;3.88;52.45;102206.81;8288275;28;19930;-81
2022/03/06 10:38:31;;;;;;;;;;;5.90;46.00;;;3.88;52.14;102201.63;8290683;28;19928;-81
2022/03/06 10:42:55;;;;;;;;;;;5.90;45.60;;;3.92;51.93;102203.34;8268576;28;19940;-82
2022/03/06 10:47:17;;;;;;;;;;;5.90;46.10;;;3.84;52.17;102189.59;8271121;28;20032;-81
2022/03/06 10:51:46;;;;;;;;;;;5.90;45.60;;;3.75;52.05;102183.59;8298346;28;19927;-81
2022/03/06 10:56:13;;;;;;;;;;;5.90;45.90;;;3.80;52.27;102193.91;8286277;28;19992;-80
2022/03/06 11:00:35;;;;;;;;;;;5.90;45.10;;;3.95;52.15;102209.34;8296916;28;20000;-81
2022/03/06 11:05:00;;;;;;;;;;;5.90;45.40;;;3.77;51.79;102181.84;8277942;28;20011;-80
2022/03/06 11:09:21;;;;;;;;;;;5.90;45.80;;;3.90;51.80;102198.19;8264036;28;20004;-80
2022/03/06 11:13:43;;;;;;;;;;;5.90;45.60;;;3.99;51.66;102205.03;8270935;28;20008;-81
2022/03/06 11:18:06;;;;;;;;;;;6.00;44.70;;;3.94;51.93;102196.44;8277685;28;20012;-80
2022/03/06 11:22:33;;;;;;;;;;;6.00;45.30;;;3.94;52.03;102184.41;8298656;28;20015;-80
2022/03/06 11:27:02;;;;;;;;;;;6.00;45.70;;;3.82;51.99;102150.84;8280562;28;20355;-80
2022/03/06 11:31:24;;;;;;;;;;;6.00;45.00;;;4.12;51.92;102180.84;8283481;28;20008;-82
2022/03/06 11:35:46;;;;;;;;;;;6.10;44.80;;;4.17;51.77;102181.69;8269576;28;20004;-82
2022/03/06 11:40:27;;;;;;;;;;;6.20;45.00;;;4.26;51.93;102182.50;8255865;28;20012;-81
2022/03/06 11:44:49;;;;;;;;;;;6.20;45.40;;;4.33;52.00;102171.28;8273590;28;20617;-81
2022/03/06 11:49:11;;;;;;;;;;;6.10;45.40;;;4.36;51.99;102173.84;8264162;28;20396;-82
2022/03/06 11:54:00;;;;;;;;;;;6.30;45.00;;;4.43;51.94;102171.22;8270007;28;19921;-81
2022/03/06 11:58:51;;;;;;;;;;;6.40;45.40;;;4.43;51.78;102160.84;8282031;28;20012;-81
2022/03/06 12:03:13;;;;;;;;;;;6.40;44.90;;;4.43;51.93;102155.69;8280145;28;19921;-81
2022/03/06 12:07:39;;;;;;;;;;;6.40;44.90;;;4.43;51.75;102158.28;8280927;28;20024;-81
2022/03/06 12:12:21;;;;;;;;;;;6.40;44.60;;;4.49;51.70;102159.09;8268268;28;19930;-83
2022/03/06 12:17:00;;;;;;;;;;;6.30;45.00;;;4.53;51.83;102156.47;8265386;28;20885;-81
2022/03/06 12:21:24;;;;;;;;;;;6.60;44.60;;;4.43;51.85;102124.66;8279301;28;20016;-82
2022/03/06 12:25:53;;;;;;;;;;;6.50;44.60;;;4.43;51.93;102123.81;8254218;28;20008;-81
2022/03/06 12:30:23;;;;;;;;;;;6.50;44.70;;;4.63;51.62;102152.94;8289937;28;19921;-82
2022/03/06 12:34:45;;;;;;;;;;;6.60;44.60;;;4.67;51.64;102146.00;8262117;28;19932;-82
2022/03/06 12:39:10;;;;;;;;;;;6.60;44.90;;;4.60;51.46;102113.31;8263033;28;19940;-81
2022/03/06 12:43:32;;;;;;;;;;;6.50;44.70;;;4.54;51.32;102103.88;8279472;28;19918;-90
2022/03/06 12:47:54;;;;;;;;;;;6.50;45.30;;;4.73;51.32;102130.47;8261958;28;19918;-81
2022/03/06 12:52:20;;;;;;;;;;;6.70;44.40;;;4.72;51.37;102115.78;8261259;28;19937;-82
2022/03/06 12:56:41;;;;;;;;;;;6.70;44.80;;;4.76;51.49;102120.09;8263788;28;19917;-81
2022/03/06 13:01:10;;;;;;;;;;;6.70;43.50;;;4.66;51.53;102111.53;8275237;28;19924;-81
2022/03/06 13:05:36;;;;;;;;;;;6.80;42.80;;;4.68;51.38;102119.28;8279377;28;20298;-81
2022/03/06 13:09:59;;;;;;;;;;;6.80;43.60;;;4.69;51.29;102123.56;8276202;28;19996;-81
2022/03/06 13:14:36;;;;;;;;;;;6.70;43.70;;;4.63;51.59;102100.34;8264860;28;20417;-81
2022/03/06 13:19:00;;;;;;;;;;;6.70;44.00;;;4.68;51.46;102114.13;8292446;28;20007;-81
2022/03/06 13:23:21;;;;;;;;;;;6.80;44.40;;;4.80;51.46;102126.94;8279940;28;19917;-82
2022/03/06 13:27:49;;;;;;;;;;;6.80;44.40;;;4.90;51.59;102132.03;8258682;28;19921;-81
2022/03/06 13:32:28;;;;;;;;;;;6.90;44.10;;;4.87;51.00;102127.75;8271371;28;19928;-80
2022/03/06 13:36:49;;;;;;;;;;;6.80;44.80;;;4.59;51.38;102083.13;8271986;28;20019;-81
2022/03/06 13:41:16;;;;;;;;;;;6.90;44.00;;;4.74;51.21;102106.28;8266340;28;20000;-81
2022/03/06 13:45:38;;;;;;;;;;;6.80;44.60;;;4.77;51.44;102106.25;8270878;28;20012;-81
2022/03/06 13:50:01;;;;;;;;;;;6.80;44.30;;;4.92;51.00;102133.75;8271776;28;19924;-81
2022/03/06 13:54:22;;;;;;;;;;;6.90;44.20;;;4.73;51.44;102101.16;8279533;28;20447;-81
2022/03/06 13:58:44;;;;;;;;;;;6.90;43.20;;;4.80;51.54;102105.38;8269485;28;20332;-81
2022/03/06 14:03:13;;;;;;;;;;;6.80;43.80;;;4.77;51.28;102103.66;8267017;28;19921;-81
2022/03/06 14:07:35;;;;;;;;;;;6.80;44.20;;;4.79;51.14;102111.44;8298466;28;20011;-82
2022/03/06 14:12:07;;;;;;;;;;;6.80;44.50;;;4.86;50.90;102129.50;8294575;28;20055;-80
2022/03/06 14:16:30;;;;;;;;;;;6.80;43.90;;;4.83;50.90;102119.16;8283201;28;20008;-82
2022/03/06 14:20:52;;;;;;;;;;;6.80;44.60;;;4.68;51.19;102098.59;8269741;28;20446;-82
2022/03/06 14:25:13;;;;;;;;;;;6.70;44.60;;;4.72;51.38;102094.25;8297673;28;20465;-81
2022/03/06 14:29:35;;;;;;;;;;;6.80;44.70;;;4.86;50.96;102118.25;8295598;28;19918;-81
2022/03/06 14:33:57;;;;;;;;;;;6.70;44.80;;;4.73;51.10;102101.16;8298679;28;19926;-82
2022/03/06 14:38:18;;;;;;;;;;;6.80;45.00;;;4.83;51.28;102121.75;8269278;28;19923;-82
2022/03/06 14:42:40;;;;;;;;;;;6.70;44.20;;;4.80;51.24;102119.16;8298347;28;19987;-82
2022/03/06 14:47:01;;;;;;;;;;;6.60;44.60;;;4.86;51.01;102120.84;8271280;28;20008;-82
2022/03/06 14:51:23;;;;;;;;;;;6.70;44.60;;;4.74;51.07;102101.13;8267648;28;20009;-82
2022/03/06 14:55:48;;;;;;;;;;;6.70;44.50;;;4.82;50.89;102125.19;8266255;28;20410;-83
2022/03/06 15:00:10;;;;;;;;;;;6.70;44.80;;;4.64;50.91;102094.28;8290247;28;19921;-82
2022/03/06 15:04:31;;;;;;;;;;;6.70;44.50;;;4.75;51.34;102109.72;8260055;28;20422;-82
2022/03/06 15:08:53;;;;;;;;;;;6.70;44.60;;;4.70;51.17;102096.84;8268905;28;20465;-82
2022/03/06 15:13:15;;;;;;;;;;;6.70;44.80;;;4.72;50.85;102107.19;8276333;28;20302;-82
2022/03/06 15:17:36;;;;;;;;;;;6.70;44.70;;;4.68;50.84;102103.75;8276632;28;19928;-82
2022/03/06 15:21:58;;;;;;;;;;;6.70;44.80;;;4.51;51.04;102074.56;8262428;28;19935;-83
2022/03/06 15:26:20;;;;;;;;;;;6.70;44.60;;;4.61;51.11;102104.69;8270630;28;19927;-82
2022/03/06 15:30:42;;;;;;;;;;;6.70;44.80;;;4.26;51.33;102043.75;8275240;28;19921;-83
2022/03/06 15:35:04;;;;;;;;;;;6.70;44.90;;;4.78;51.15;102127.81;8285370;28;19932;-82
2022/03/06 15:39:28;;;;;;;;;;;6.70;45.10;;;4.72;51.25;102112.34;8296718;28;19929;-82
2022/03/06 15:43:49;;;;;;;;;;;6.70;44.90;;;4.70;51.22;102111.50;8271463;28;19921;-83
2022/03/06 15:48:11;;;;;;;;;;;6.70;45.20;;;4.81;51.11;102120.91;8261647;28;20322;-82
2022/03/06 15:52:34;;;;;;;;;;;6.70;45.20;;;4.83;51.16;102129.53;8281616;28;20279;-82
2022/03/06 15:56:56;;;;;;;;;;;6.70;45.40;;;4.72;51.13;102110.63;8274302;28;19921;-82
2022/03/06 16:01:17;;;;;;;;;;;6.60;45.30;;;4.73;50.90;102112.34;8263866;28;19932;-82
2022/03/06 16:05:39;;;;;;;;;;;6.60;45.10;;;4.67;51.34;102102.03;8274882;28;19957;-83
2022/03/06 16:10:00;;;;;;;;;;;6.70;45.30;;;4.70;50.82;102103.72;8259980;28;20496;-82
2022/03/06 16:14:22;;;;;;;;;;;6.70;45.30;;;4.78;51.34;102126.09;8261054;28;20409;-82
2022/03/06 16:18:44;;;;;;;;;;;6.70;45.20;;;4.77;50.98;102123.53;8256154;28;20295;-82
2022/03/06 16:23:05;;;;;;;;;;;6.70;45.40;;;4.75;50.94;102131.31;8261725;28;20422;-82
2022/03/06 16:27:27;;;;;;;;;;;6.50;45.30;;;4.76;51.01;102117.50;8258709;28;20403;-83
2022/03/06 16:31:52;;;;;;;;;;;6.50;45.30;;;4.71;51.21;102108.91;8260262;28;20309;-82
2022/03/06 16:36:13;;;;;;;;;;;6.70;45.50;;;4.74;50.89;102116.63;8251682;28;19922;-81
2022/03/06 16:40:35;;;;;;;;;;;6.70;45.50;;;4.72;51.07;102115.78;8260792;28;20396;-83
2022/03/06 16:44:57;;;;;;;;;;;6.70;45.60;;;4.67;51.10;102104.63;8260664;28;20891;-81
2022/03/06 16:49:18;;;;;;;;;;;6.60;45.60;;;4.73;51.10;102116.66;8269138;28;19927;-82
2022/03/06 16:53:40;;;;;;;;;;;6.70;45.60;;;4.68;51.05;102119.28;8286166;28;19925;-82
2022/03/06 16:58:03;;;;;;;;;;;6.60;45.60;;;4.68;50.99;102114.13;8273229;28;19944;-82
2022/03/06 17:02:24;;;;;;;;;;;6.60;45.50;;;4.69;51.14;102115.81;8271361;28;19925;-83
2022/03/06 17:06:46;;;;;;;;;;;6.70;45.70;;;4.74;50.91;102129.56;8285857;28;20562;-82
2022/03/06 17:11:07;;;;;;;;;;;6.70;45.70;;;4.31;50.96;102064.41;8258989;28;20971;-81
2022/03/06 17:15:31;;;;;;;;;;;6.70;45.70;;;4.66;51.08;102132.22;8258068;28;20743;-81
2022/03/06 17:19:53;;;;;;;;;;;6.60;45.60;;;4.59;50.94;102124.50;8285835;28;19921;-82
2022/03/06 17:24:14;;;;;;;;;;;6.60;45.70;;;4.70;51.06;102129.59;8297448;28;19921;-81
2022/03/06 17:28:36;;;;;;;;;;;6.70;45.80;;;4.50;51.06;102098.72;8262483;28;19928;-82
2022/03/06 17:32:58;;;;;;;;;;;6.70;45.60;;;4.72;51.11;102149.44;8268063;28;19925;-82
2022/03/06 17:37:19;;;;;;;;;;;6.40;45.50;;;4.67;50.89;102138.25;8257766;28;19932;-82
2022/03/06 17:41:41;;;;;;;;;;;6.50;45.70;;;4.79;51.36;102168.38;8282816;28;19921;-83
2022/03/06 17:46:05;;;;;;;;;;;6.70;45.90;;;4.70;51.26;102151.19;8272991;28;19922;-81
2022/03/06 17:50:26;;;;;;;;;;;6.60;45.80;;;4.81;51.09;102171.81;8256855;28;19922;-81
2022/03/06 17:54:48;;;;;;;;;;;6.70;45.90;;;4.71;50.84;102144.28;8282202;28;19926;-82
2022/03/06 17:59:09;;;;;;;;;;;6.70;45.90;;;4.71;51.25;102147.72;8278957;28;19928;-82
2022/03/06 18:03:34;;;;;;;;;;;6.70;46.00;;;4.75;51.29;102153.72;8265487;28;19925;-83
2022/03/06 18:07:56;;;;;;;;;;;6.70;46.00;;;4.80;51.22;102164.91;8254434;28;19921;-82
2022/03/06 18:12:17;;;;;;;;;;;6.60;45.90;;;4.80;51.36;102168.34;8267160;28;19926;-82
2022/03/06 18:16:39;;;;;;;;;;;6.70;46.00;;;4.73;50.94;102158.94;8256803;28;19937;-82
2022/03/06 18:21:03;;;;;;;;;;;6.60;45.90;;;4.41;51.18;102110.88;8280927;28;19921;-82
2022/03/06 18:25:27;;;;;;;;;;;6.70;46.00;;;4.75;50.94;102161.47;8266489;28;19928;-82
2022/03/06 18:29:49;;;;;;;;;;;6.70;46.00;;;4.82;51.19;102184.72;8263810;28;19933;-82
2022/03/06 18:34:15;;;;;;;;;;;6.70;46.00;;;4.72;51.11;102170.13;8278129;28;19929;-82
2022/03/06 18:38:37;;;;;;;;;;;6.70;46.00;;;4.69;51.05;102162.38;8276749;28;19925;-82
2022/03/06 18:42:58;;;;;;;;;;;6.60;45.90;;;4.69;50.90;102172.75;8265162;28;19928;-82
2022/03/06 18:47:20;;;;;;;;;;;6.70;46.00;;;4.58;51.29;102153.84;8264286;28;19921;-82
2022/03/06 18:51:42;;;;;;;;;;;6.70;46.00;;;4.63;51.34;102157.28;8277375;28;19921;-83
2022/03/06 18:56:04;;;;;;;;;;;6.60;46.00;;;4.67;51.24;102187.41;8264338;28;19952;-82
2022/03/06 19:00:25;;;;;;;;;;;6.60;46.10;;;4.66;51.34;102190.88;8283506;28;20481;-82
2022/03/06 19:04:47;;;;;;;;;;;6.80;46.20;;;4.51;51.11;102172.88;8258501;28;20339;-82
2022/03/06 19:09:09;;;;;;;;;;;6.50;46.00;;;4.56;51.29;102181.44;8288274;28;20381;-82
2022/03/06 19:13:32;;;;;;;;;;;6.50;46.00;;;4.58;51.09;102187.47;8251897;28;20318;-83
2022/03/06 19:17:53;;;;;;;;;;;6.50;46.00;;;4.07;51.04;102099.88;8274719;28;20100;-82
2022/03/06 19:22:18;;;;;;;;;;;6.40;46.10;;;4.50;51.33;102182.34;8288758;28;19925;-82
2022/03/06 19:26:40;;;;;;;;;;;6.50;46.10;;;4.61;51.16;102195.22;8262767;28;19924;-82
2022/03/06 19:31:03;;;;;;;;;;;6.50;46.10;;;4.49;51.14;102191.00;8283344;28;20444;-82
2022/03/06 19:35:25;;;;;;;;;;;6.50;46.20;;;4.50;51.39;102191.84;8269955;28;19936;-80
2022/03/06 19:39:47;;;;;;;;;;;6.50;46.20;;;4.53;51.31;102202.16;8276722;28;19940;-81